Time;durP1;ratioP1;P1;durP2;ratioP2;P2;SDS_P1;SDS_P2;PMS_P1;PMS_P2;Temp;Humidity;BMP_temperature;BMP_pressure;BME280_temperature;BME280_humidity;BME280_pressure;Samples;Min_cycle;Max_cycle;Signal;HPM_P1;HPM_P2
2022/11/19 00:01:46;;;;;;;10.00;2.83;;;8.20;99.90;;;;;;4985311;28;20113;-92
2022/11/19 00:04:11;;;;;;;11.82;1.65;;;8.10;99.90;;;;;;4981720;28;20097;-93
2022/11/19 00:06:37;;;;;;;7.65;1.80;;;8.10;99.90;;;;;;4982848;28;20050;-92
2022/11/19 00:09:04;;;;;;;7.97;1.88;;;8.10;99.90;;;;;;4988144;28;20026;-94
2022/11/19 00:14:15;;;;;;;5.68;1.85;;;8.10;99.90;;;;;;4983218;28;20111;-92
2022/11/19 00:16:42;;;;;;;11.55;2.53;;;8.10;99.90;;;;;;4983981;28;20054;-93
2022/11/19 00:19:12;;;;;;;5.63;2.17;;;8.10;99.90;;;;;;4985517;28;20027;-91
2022/11/19 00:21:37;;;;;;;7.80;2.33;;;8.10;99.90;;;;;;4985282;28;20110;-92
2022/11/19 00:24:03;;;;;;;10.25;2.10;;;8.10;99.90;;;;;;4985247;28;20046;-91
2022/11/19 00:26:29;;;;;;;7.00;1.92;;;8.10;99.90;;;;;;4981736;28;20035;-89
2022/11/19 00:28:54;;;;;;;11.65;2.08;;;8.10;99.90;;;;;;4980682;28;20034;-90
2022/11/19 00:31:20;;;;;;;11.35;2.50;;;8.10;99.90;;;;;;4984445;28;20054;-90
2022/11/19 00:33:46;;;;;;;7.57;2.08;;;8.20;99.90;;;;;;4984840;28;20023;-91
2022/11/19 00:36:14;;;;;;;6.85;1.65;;;8.20;99.90;;;;;;4985444;28;20039;-93
2022/11/19 00:38:40;;;;;;;6.78;1.30;;;8.10;99.90;;;;;;4983714;28;20051;-92
2022/11/19 00:41:06;;;;;;;8.38;1.50;;;8.10;99.90;;;;;;4968594;28;20055;-93
2022/11/19 00:43:47;;;;;;;4.57;1.58;;;8.10;99.90;;;;;;4961937;29;20034;-94
2022/11/19 00:46:18;;;;;;;4.55;1.35;;;8.10;99.90;;;;;;4961093;29;20027;-93
2022/11/19 00:48:44;;;;;;;;;;;8.10;99.90;;;;;;4962546;29;20023;-91
2022/11/19 00:51:10;;;;;;;3.38;0.90;;;8.10;99.90;;;;;;4963519;29;20328;-92
2022/11/19 00:53:36;;;;;;;5.10;1.30;;;8.10;99.90;;;;;;4966789;29;20055;-94
2022/11/19 00:56:04;;;;;;;5.65;1.30;;;8.00;99.90;;;;;;4976319;29;20040;-94
2022/11/19 00:58:30;;;;;;;3.60;1.10;;;8.00;99.90;;;;;;4961413;29;20049;-94
2022/11/19 01:00:56;;;;;;;6.72;1.77;;;8.00;99.90;;;;;;4959370;29;20146;-93
2022/11/19 01:03:23;;;;;;;2.65;1.40;;;8.00;99.90;;;;;;4953134;29;20035;-92
2022/11/19 01:05:48;;;;;;;7.70;1.50;;;8.00;99.90;;;;;;4969744;29;20056;-94
2022/11/19 01:08:14;;;;;;;5.53;1.30;;;8.00;99.90;;;;;;4953533;29;20284;-94
2022/11/19 01:10:40;;;;;;;7.60;1.30;;;8.00;99.90;;;;;;4956556;29;20028;-94
2022/11/19 01:15:51;;;;;;;8.15;1.40;;;8.00;99.90;;;;;;4959264;29;20131;-94
2022/11/19 01:18:17;;;;;;;4.20;1.23;;;8.00;99.90;;;;;;4958415;29;20030;-92
2022/11/19 01:20:43;;;;;;;6.18;1.20;;;8.00;99.90;;;;;;4955412;29;20035;-94
2022/11/19 01:23:09;;;;;;;8.90;1.55;;;8.00;99.90;;;;;;4969958;29;20061;-94
2022/11/19 01:25:35;;;;;;;3.55;1.25;;;8.00;99.90;;;;;;4964723;29;20039;-92
2022/11/19 01:28:01;;;;;;;4.57;1.10;;;8.00;99.90;;;;;;4952724;29;20030;-94
2022/11/19 01:30:31;;;;;;;7.65;1.90;;;8.00;99.90;;;;;;4972220;29;20503;-92
2022/11/19 01:32:57;;;;;;;6.53;1.20;;;8.00;99.90;;;;;;4968135;28;20063;-94
2022/11/19 01:35:22;;;;;;;5.63;1.20;;;8.00;99.90;;;;;;4949164;29;20035;-93
2022/11/19 01:37:48;;;;;;;7.25;1.17;;;8.00;99.90;;;;;;4950468;29;20079;-94
2022/11/19 01:40:14;;;;;;;5.70;1.10;;;8.00;99.90;;;;;;4971744;28;20050;-94
2022/11/19 01:42:48;;;;;;;3.30;0.98;;;7.90;99.90;;;;;;4972226;28;20041;-93
2022/11/19 01:45:48;;;;;;;6.38;1.25;;;8.00;99.90;;;;;;4971590;28;20085;-93
2022/11/19 01:48:28;;;;;;;13.18;1.80;;;8.00;99.90;;;;;;4973669;28;20029;-94
2022/11/19 01:51:18;;;;;;;4.95;1.23;;;7.90;99.90;;;;;;4959530;28;20035;-90
2022/11/19 01:53:49;;;;;;;4.97;0.93;;;7.90;99.90;;;;;;4960442;28;20050;-94
2022/11/19 01:56:17;;;;;;;6.65;0.90;;;7.90;99.90;;;;;;4974209;28;20341;-93
2022/11/19 01:58:47;;;;;;;8.02;1.23;;;7.90;99.90;;;;;;4995238;28;20078;-92
2022/11/19 02:01:15;;;;;;;5.20;0.82;;;7.90;99.90;;;;;;4980949;28;20046;-90
2022/11/19 02:03:41;;;;;;;5.13;0.80;;;7.80;99.90;;;;;;4981982;28;20063;-89
2022/11/19 02:06:11;;;;;;;6.63;0.93;;;7.80;99.90;;;;;;4961486;28;20031;-94
2022/11/19 02:08:44;;;;;;;4.13;0.98;;;7.80;99.90;;;;;;4986071;28;20140;-93
2022/11/19 02:11:44;;;;;;;7.20;1.23;;;7.80;99.90;;;;;;4989112;28;20041;-90
2022/11/19 02:14:32;;;;;;;11.18;1.20;;;7.80;99.90;;;;;;4894795;29;20180;-94
2022/11/19 02:17:17;;;;;;;4.30;0.70;;;7.80;99.90;;;;;;4891977;29;20196;-94
2022/11/19 02:20:03;;;;;;;6.28;1.30;;;7.80;99.90;;;;;;4893886;29;20040;-92
2022/11/19 02:22:45;;;;;;;9.05;0.93;;;7.80;99.90;;;;;;4894931;29;20028;-93
2022/11/19 02:25:48;;;;;;;6.60;0.80;;;7.80;99.90;;;;;;4892296;29;20033;-93
2022/11/19 02:28:24;;;;;;;6.70;0.88;;;7.80;99.90;;;;;;4913008;29;20029;-92
2022/11/19 02:30:52;;;;;;;9.52;2.55;;;7.80;99.90;;;;;;4897193;29;20133;-93
2022/11/19 02:33:18;;;;;;;6.90;0.95;;;7.80;99.90;;;;;;4912047;29;20087;-93
2022/11/19 02:35:55;;;;;;;6.38;1.60;;;7.80;99.90;;;;;;4912561;29;20041;-92
2022/11/19 02:38:25;;;;;;;8.25;1.17;;;7.80;99.90;;;;;;4890879;29;20522;-94
2022/11/19 02:47:08;;;;;;;6.93;1.42;;;7.80;99.90;;;;;;4937542;29;20144;-91
2022/11/19 02:49:38;;;;;;;6.43;1.30;;;7.80;99.90;;;;;;4914716;29;20047;-91
2022/11/19 02:52:04;;;;;;;5.97;1.63;;;7.80;99.90;;;;;;4989679;28;20128;-93
2022/11/19 02:54:29;;;;;;;8.43;1.10;;;7.90;99.90;;;;;;4994099;28;20046;-90
2022/11/19 02:56:59;;;;;;;5.57;0.90;;;7.80;99.90;;;;;;4992604;28;20304;-94
2022/11/19 03:05:05;;;;;;;5.40;1.17;;;7.80;99.90;;;;;;4995556;28;20034;-90
2022/11/19 03:07:31;;;;;;;11.32;1.80;;;7.90;99.90;;;;;;4987724;28;20046;-93
2022/11/19 03:10:01;;;;;;;7.63;1.42;;;7.80;99.90;;;;;;4990229;28;20045;-93
2022/11/19 03:12:45;;;;;;;7.53;1.53;;;7.80;99.90;;;;;;4989438;28;20116;-91
2022/11/19 03:18:27;;;;;;;12.02;1.95;;;7.80;99.90;;;;;;4971788;29;20508;-94
2022/11/19 03:21:06;;;;;;;5.45;1.95;;;7.90;99.90;;;;;;4979831;28;20504;-93
2022/11/19 03:23:41;;;;;;;8.68;0.80;;;7.80;99.90;;;;;;4964800;29;20035;-91
2022/11/19 03:26:28;;;;;;;10.18;1.30;;;7.90;99.90;;;;;;4987142;28;20118;-92
2022/11/19 03:28:57;;;;;;;7.65;1.15;;;7.90;99.90;;;;;;4950884;29;20020;-91
2022/11/19 03:31:25;;;;;;;6.85;1.30;;;7.90;99.90;;;;;;4969275;29;20042;-94
2022/11/19 03:33:59;;;;;;;6.70;1.17;;;7.90;99.90;;;;;;4970022;29;20087;-94
2022/11/19 03:36:39;;;;;;;5.95;1.05;;;7.90;99.90;;;;;;4987295;28;20062;-94
2022/11/19 03:39:15;;;;;;;4.15;1.48;;;7.90;99.90;;;;;;4984743;28;20019;-95
2022/11/19 03:41:49;;;;;;;8.90;1.20;;;7.90;99.90;;;;;;4951675;28;20051;-92
2022/11/19 03:44:52;;;;;;;7.75;1.00;;;7.90;99.90;;;;;;4968853;28;20027;-94
2022/11/19 03:47:23;;;;;;;8.00;1.20;;;7.90;99.90;;;;;;4954469;29;20035;-93
2022/11/19 03:49:55;;;;;;;4.15;1.20;;;7.90;99.90;;;;;;4970633;29;20019;-95
2022/11/19 03:52:21;;;;;;;3.55;0.77;;;7.90;99.90;;;;;;4971690;29;20110;-95
2022/11/19 03:54:47;;;;;;;3.80;1.00;;;7.90;99.90;;;;;;4971113;29;20094;-92
2022/11/19 03:57:17;;;;;;;2.25;0.93;;;8.00;99.90;;;;;;4972406;28;20035;-91
2022/11/19 03:59:43;;;;;;;3.80;0.83;;;7.90;99.90;;;;;;4969684;29;20028;-94
2022/11/19 04:02:10;;;;;;;5.50;0.98;;;8.00;99.90;;;;;;4973447;28;20282;-94
2022/11/19 04:04:39;;;;;;;12.23;1.50;;;8.00;99.90;;;;;;4993974;28;20027;-93
2022/11/19 04:07:10;;;;;;;5.03;1.30;;;8.00;99.90;;;;;;4973767;29;20023;-94
2022/11/19 04:09:37;;;;;;;4.38;0.93;;;7.90;99.90;;;;;;4956678;29;20082;-92
2022/11/19 04:12:03;;;;;;;3.75;0.82;;;7.90;99.90;;;;;;4976760;28;20038;-92
2022/11/19 04:14:29;;;;;;;5.60;1.13;;;7.90;99.90;;;;;;4978722;28;20025;-95
2022/11/19 04:16:58;;;;;;;3.92;0.80;;;7.90;99.90;;;;;;4978034;28;20115;-93
2022/11/19 04:19:23;;;;;;;5.57;1.42;;;8.00;99.90;;;;;;4979681;28;20027;-91
2022/11/19 04:21:52;;;;;;;4.63;1.02;;;8.00;99.90;;;;;;4978526;28;20047;-93
2022/11/19 04:24:18;;;;;;;4.28;0.93;;;7.90;99.90;;;;;;4994401;28;20016;-94
2022/11/19 04:26:43;;;;;;;3.63;0.90;;;8.00;99.90;;;;;;4978177;28;20031;-92
2022/11/19 04:29:10;;;;;;;2.65;1.23;;;8.00;99.90;;;;;;4975668;28;20035;-91
2022/11/19 04:31:36;;;;;;;4.20;1.35;;;8.00;99.90;;;;;;4975656;28;20034;-95
2022/11/19 04:34:02;;;;;;;6.32;1.25;;;8.00;99.90;;;;;;4974312;28;20086;-90
2022/11/19 04:36:27;;;;;;;3.10;1.08;;;8.00;99.90;;;;;;4977293;28;20122;-92
2022/11/19 04:38:53;;;;;;;8.00;1.40;;;8.00;99.90;;;;;;4976286;29;20079;-94
2022/11/19 04:41:18;;;;;;;14.35;1.55;;;8.10;99.90;;;;;;4961844;29;20064;-93
2022/11/19 04:43:44;;;;;;;5.10;0.88;;;8.10;99.90;;;;;;4952113;29;20051;-91
2022/11/19 04:46:10;;;;;;;4.38;0.80;;;8.10;99.90;;;;;;4951726;29;20084;-94
2022/11/19 04:48:35;;;;;;;4.30;1.27;;;8.10;99.90;;;;;;4944028;28;20059;-92
2022/11/19 04:51:01;;;;;;;4.45;0.93;;;8.10;99.90;;;;;;4947220;29;20047;-95
2022/11/19 04:53:26;;;;;;;6.95;1.02;;;8.10;99.90;;;;;;4953829;29;20024;-93
2022/11/19 04:55:52;;;;;;;3.40;0.82;;;8.10;99.90;;;;;;4950944;29;20438;-94
2022/11/19 04:58:18;;;;;;;2.78;0.80;;;8.10;99.90;;;;;;4949863;29;20023;-94
2022/11/19 05:00:43;;;;;;;8.18;1.13;;;8.10;99.90;;;;;;4949956;29;20035;-95
2022/11/19 05:03:09;;;;;;;9.50;1.48;;;8.10;99.90;;;;;;4953703;29;20050;-94
2022/11/19 05:05:35;;;;;;;5.68;0.90;;;8.10;99.90;;;;;;4958722;29;20083;-93
2022/11/19 05:08:00;;;;;;;4.72;1.08;;;8.10;99.90;;;;;;4949799;29;20056;-94
2022/11/19 05:10:26;;;;;;;8.38;1.02;;;8.10;99.90;;;;;;4941907;29;20031;-95
2022/11/19 05:12:51;;;;;;;5.15;1.00;;;8.10;99.90;;;;;;4943689;29;20055;-93
2022/11/19 05:15:17;;;;;;;9.52;2.47;;;8.10;99.90;;;;;;4943290;29;20040;-93
2022/11/19 05:17:43;;;;;;;5.75;0.98;;;8.10;99.90;;;;;;4945668;29;20032;-94
2022/11/19 05:20:09;;;;;;;2.45;0.70;;;8.00;99.90;;;;;;4943122;29;20035;-94
2022/11/19 05:22:36;;;;;;;5.55;1.02;;;8.00;99.90;;;;;;4928422;29;20034;-94
2022/11/19 05:25:02;;;;;;;5.45;1.30;;;8.00;99.90;;;;;;4942532;29;20027;-93
2022/11/19 05:27:27;;;;;;;8.27;1.23;;;8.00;99.90;;;;;;4944905;29;20091;-94
2022/11/19 05:29:53;;;;;;;8.52;1.77;;;8.00;99.90;;;;;;4947168;29;20036;-93
2022/11/19 05:32:18;;;;;;;6.88;1.42;;;8.00;99.90;;;;;;4947045;29;20036;-95
2022/11/19 05:34:44;;;;;;;6.07;1.27;;;8.00;99.90;;;;;;4945687;29;20040;-94
2022/11/19 05:37:10;;;;;;;8.93;1.63;;;8.00;99.90;;;;;;4945201;29;20067;-95
2022/11/19 05:39:35;;;;;;;4.97;1.05;;;7.90;99.90;;;;;;4941789;29;20075;-94
2022/11/19 05:42:01;;;;;;;8.15;1.20;;;7.90;99.90;;;;;;4960315;29;20146;-94
2022/11/19 05:44:27;;;;;;;9.25;1.58;;;8.00;99.90;;;;;;4966856;29;20043;-95
2022/11/19 05:46:54;;;;;;;7.13;1.55;;;8.00;99.90;;;;;;4957340;29;20070;-94
2022/11/19 05:49:19;;;;;;;9.55;2.03;;;8.00;99.90;;;;;;4958517;29;20015;-94
2022/11/19 05:51:45;;;;;;;4.90;1.75;;;8.00;99.90;;;;;;4957188;28;20039;-94
2022/11/19 05:54:11;;;;;;;6.20;1.35;;;8.00;99.90;;;;;;4956360;29;20031;-92
2022/11/19 05:56:37;;;;;;;9.88;1.63;;;8.00;99.90;;;;;;4956482;29;20054;-95
2022/11/19 05:59:02;;;;;;;9.93;2.25;;;8.10;99.90;;;;;;4957559;29;20023;-93
2022/11/19 06:01:29;;;;;;;9.20;1.77;;;8.00;99.90;;;;;;4956189;29;20056;-95
2022/11/19 06:03:55;;;;;;;5.38;1.75;;;8.00;99.90;;;;;;4957401;29;20088;-93
2022/11/19 06:06:21;;;;;;;9.52;1.42;;;8.00;99.90;;;;;;4960027;29;20028;-92
2022/11/19 06:08:48;;;;;;;5.60;1.52;;;8.00;99.90;;;;;;4956252;29;20056;-92
2022/11/19 06:13:59;;;;;;;9.38;1.52;;;8.00;99.90;;;;;;4971334;29;20091;-94
2022/11/19 06:16:25;;;;;;;7.53;1.60;;;8.00;99.90;;;;;;4971614;29;20039;-94
2022/11/19 06:18:50;;;;;;;4.47;1.30;;;8.00;99.90;;;;;;4975322;29;20015;-92
2022/11/19 06:21:16;;;;;;;4.07;1.40;;;8.00;99.90;;;;;;4977573;29;20092;-93
2022/11/19 06:23:41;;;;;;;4.95;1.90;;;8.00;99.90;;;;;;4977523;29;20027;-89
2022/11/19 06:26:09;;;;;;;5.97;1.40;;;8.00;99.90;;;;;;4959607;29;20043;-91
2022/11/19 06:28:35;;;;;;;4.22;1.13;;;8.00;99.90;;;;;;4976694;29;20023;-95
2022/11/19 06:31:01;;;;;;;5.05;1.50;;;8.00;99.90;;;;;;4959950;29;20019;-89
2022/11/19 06:33:26;;;;;;;6.10;1.27;;;8.00;99.90;;;;;;4975691;29;20066;-92
2022/11/19 06:35:52;;;;;;;4.88;1.40;;;8.00;99.90;;;;;;4959744;29;20027;-89
2022/11/19 06:38:18;;;;;;;4.82;1.10;;;8.00;99.90;;;;;;4961785;29;20015;-91
2022/11/19 06:40:46;;;;;;;6.88;1.10;;;7.90;99.90;;;;;;4962299;29;20047;-93
2022/11/19 06:43:15;;;;;;;3.88;1.10;;;7.90;99.90;;;;;;4961758;29;20042;-91
2022/11/19 06:45:41;;;;;;;4.60;1.17;;;7.90;99.90;;;;;;4978998;28;20119;-90
2022/11/19 06:48:06;;;;;;;3.15;1.17;;;7.90;99.90;;;;;;4961505;29;20039;-94
2022/11/19 06:50:32;;;;;;;5.78;1.00;;;7.90;99.90;;;;;;4960409;29;20011;-95
2022/11/19 06:53:02;;;;;;;2.25;1.05;;;7.90;99.90;;;;;;4962315;29;20027;-94
2022/11/19 06:55:33;;;;;;;3.30;1.75;;;7.90;99.90;;;;;;4977990;29;20095;-94
2022/11/19 06:58:03;;;;;;;3.08;1.00;;;7.90;99.90;;;;;;4977840;29;20041;-94
2022/11/19 07:00:30;;;;;;;4.57;1.23;;;7.90;99.90;;;;;;4976283;28;20083;-91
2022/11/19 07:02:55;;;;;;;4.13;1.20;;;7.80;99.90;;;;;;4960950;28;20054;-94
2022/11/19 07:05:21;;;;;;;2.30;1.10;;;7.80;99.90;;;;;;4973846;29;20035;-96
2022/11/19 07:07:46;;;;;;;2.20;1.00;;;7.80;99.90;;;;;;4960060;29;20023;-94
2022/11/19 07:10:12;;;;;;;5.47;1.10;;;7.80;99.90;;;;;;4960579;29;20027;-93
2022/11/19 07:12:38;;;;;;;4.65;1.88;;;7.80;99.90;;;;;;4978358;28;20049;-90
2022/11/19 07:15:04;;;;;;;6.40;1.10;;;7.80;99.90;;;;;;4960207;29;20039;-94
2022/11/19 07:17:31;;;;;;;5.53;1.13;;;7.80;99.90;;;;;;4958922;29;20039;-91
2022/11/19 07:19:57;;;;;;;6.28;0.95;;;7.70;99.90;;;;;;4978022;29;20120;-92
2022/11/19 07:22:23;;;;;;;7.55;1.10;;;7.70;99.90;;;;;;4978954;28;20016;-95
2022/11/19 07:24:48;;;;;;;3.78;1.08;;;7.70;99.90;;;;;;4979440;28;20046;-91
2022/11/19 07:27:15;;;;;;;4.30;1.33;;;7.60;99.90;;;;;;4978579;28;20054;-95
2022/11/19 07:29:40;;;;;;;4.97;2.65;;;7.60;99.90;;;;;;4962164;28;20028;-92
2022/11/19 07:32:06;;;;;;;1.70;0.80;;;7.60;99.90;;;;;;4962332;29;20031;-91
2022/11/19 07:34:32;;;;;;;4.53;1.25;;;7.60;99.90;;;;;;4962798;28;20035;-92
2022/11/19 07:37:03;;;;;;;3.00;0.95;;;7.60;99.90;;;;;;4963277;28;20023;-93
2022/11/19 07:39:31;;;;;;;3.47;1.00;;;7.60;99.90;;;;;;4963319;28;20043;-93
2022/11/19 07:44:45;;;;;;;3.42;0.90;;;7.50;99.90;;;;;;4978607;28;20023;-89
2022/11/19 07:47:10;;;;;;;3.42;1.05;;;7.50;99.90;;;;;;4962402;28;20020;-94
2022/11/19 07:49:36;;;;;;;4.63;1.23;;;7.50;99.90;;;;;;4979015;28;20481;-93
2022/11/19 07:52:02;;;;;;;4.55;0.98;;;7.40;99.90;;;;;;4979009;28;20095;-96
2022/11/19 07:54:27;;;;;;;3.63;1.00;;;7.40;99.90;;;;;;4978641;28;20038;-93
2022/11/19 07:56:53;;;;;;;4.20;0.95;;;7.30;99.90;;;;;;4978439;28;20027;-94
2022/11/19 07:59:21;;;;;;;1.75;0.77;;;7.30;99.90;;;;;;4961523;29;20027;-92
2022/11/19 08:01:47;;;;;;;3.00;0.82;;;7.20;99.90;;;;;;4977977;29;20043;-92
2022/11/19 08:04:13;;;;;;;3.33;1.10;;;7.20;99.90;;;;;;4959693;29;20027;-93
2022/11/19 08:06:38;;;;;;;2.33;1.00;;;7.10;99.90;;;;;;4991785;28;20019;-91
2022/11/19 08:09:05;;;;;;;6.80;1.35;;;7.10;99.90;;;;;;4987058;28;20046;-90
2022/11/19 08:11:33;;;;;;;2.92;1.20;;;7.10;99.90;;;;;;4968776;28;20095;-94
2022/11/19 08:14:02;;;;;;;3.10;0.85;;;7.00;99.90;;;;;;4969944;28;20026;-90
2022/11/19 08:19:14;;;;;;;3.67;1.10;;;7.00;99.90;;;;;;4982360;28;20050;-94
2022/11/19 08:21:44;;;;;;;2.35;0.93;;;7.10;99.90;;;;;;4976209;28;20031;-90
2022/11/19 08:24:12;;;;;;;3.63;1.02;;;7.10;99.90;;;;;;4961374;28;20042;-92
2022/11/19 08:26:40;;;;;;;4.85;1.00;;;7.10;99.90;;;;;;4963851;28;20030;-92
2022/11/19 08:29:10;;;;;;;1.55;0.90;;;7.10;99.90;;;;;;4965026;28;20038;-90
2022/11/19 08:31:36;;;;;;;5.10;1.10;;;7.10;99.90;;;;;;4965211;28;20046;-90
2022/11/19 08:34:02;;;;;;;2.03;1.00;;;7.10;99.90;;;;;;4963114;29;20035;-92
2022/11/19 08:36:28;;;;;;;3.65;0.80;;;7.10;99.90;;;;;;4964495;28;20081;-93
2022/11/19 08:38:59;;;;;;;3.03;1.38;;;7.20;99.90;;;;;;4964587;28;20036;-90
2022/11/19 08:44:10;;;;;;;3.95;1.20;;;7.20;99.90;;;;;;4982869;28;20043;-88
2022/11/19 08:46:37;;;;;;;2.90;1.00;;;7.20;99.90;;;;;;4965735;28;20085;-89
2022/11/19 08:49:02;;;;;;;4.05;1.30;;;7.30;99.90;;;;;;4973109;28;20046;-89
2022/11/19 08:51:28;;;;;;;2.35;1.08;;;7.30;99.90;;;;;;4978814;28;20035;-91
2022/11/19 08:53:54;;;;;;;1.48;1.00;;;7.40;99.90;;;;;;4983315;28;20023;-91
2022/11/19 08:56:20;;;;;;;7.03;1.13;;;7.40;99.90;;;;;;5001264;28;20042;-92
2022/11/19 08:58:46;;;;;;;4.60;1.00;;;7.40;99.90;;;;;;4983778;28;20037;-95
2022/11/19 09:01:14;;;;;;;5.82;1.17;;;7.40;99.90;;;;;;4983761;28;20027;-90
2022/11/19 09:03:40;;;;;;;1.60;0.88;;;7.40;99.90;;;;;;4982224;28;20031;-95
2022/11/19 09:06:20;;;;;;;7.93;1.33;;;7.50;99.90;;;;;;4983175;28;20023;-92
2022/11/19 09:08:46;;;;;;;3.47;1.38;;;7.50;99.90;;;;;;4988549;28;20035;-92
2022/11/19 09:11:16;;;;;;;4.53;1.60;;;7.60;99.90;;;;;;4975449;28;20023;-95
2022/11/19 09:13:42;;;;;;;4.90;1.85;;;7.70;99.90;;;;;;4964518;28;20039;-95
2022/11/19 09:16:09;;;;;;;3.47;1.20;;;7.80;99.90;;;;;;4995958;28;20050;-94
2022/11/19 09:18:40;;;;;;;1.98;1.23;;;7.90;99.90;;;;;;4985779;28;20059;-96
2022/11/19 09:21:12;;;;;;;4.47;1.40;;;8.00;99.90;;;;;;4995282;28;20102;-92
2022/11/19 09:23:38;;;;;;;2.95;1.35;;;8.00;99.90;;;;;;4970053;28;20015;-95
2022/11/19 09:26:15;;;;;;;3.45;1.27;;;8.10;99.90;;;;;;4997612;28;20026;-94
2022/11/19 09:28:42;;;;;;;2.65;1.20;;;8.10;99.90;;;;;;4976309;28;20021;-95
2022/11/19 09:31:11;;;;;;;4.13;0.95;;;8.20;99.90;;;;;;4974668;28;20094;-92
2022/11/19 09:33:40;;;;;;;4.90;1.30;;;8.30;99.90;;;;;;4992664;28;20046;-95
2022/11/19 09:36:07;;;;;;;1.63;0.93;;;8.30;99.90;;;;;;4973971;28;20030;-95
2022/11/19 09:38:35;;;;;;;3.05;0.90;;;8.40;99.90;;;;;;4967054;28;20089;-95
2022/11/19 09:41:32;;;;;;;4.32;1.08;;;8.40;99.90;;;;;;4981654;28;20105;-94
2022/11/19 09:44:18;;;;;;;4.00;0.70;;;8.50;99.90;;;;;;4959663;28;20046;-94
2022/11/19 09:47:11;;;;;;;3.92;0.77;;;8.50;99.90;;;;;;4969444;28;20023;-95
2022/11/19 09:49:45;;;;;;;2.63;0.45;;;8.50;99.90;;;;;;4964186;28;20022;-95
2022/11/19 09:52:20;;;;;;;4.90;0.85;;;8.60;99.90;;;;;;4968125;28;20026;-96
2022/11/19 09:54:49;;;;;;;2.17;0.55;;;8.70;99.90;;;;;;4957791;28;20039;-93
2022/11/19 09:57:25;;;;;;;1.35;0.60;;;8.80;99.90;;;;;;4967368;28;20098;-94
2022/11/19 09:59:55;;;;;;;4.10;1.25;;;8.80;99.90;;;;;;4963982;28;20038;-96
2022/11/19 10:02:22;;;;;;;2.00;0.60;;;8.90;99.90;;;;;;4968085;28;20026;-95
2022/11/19 10:04:54;;;;;;;1.27;0.55;;;9.00;99.90;;;;;;4973498;28;20034;-96
2022/11/19 10:07:38;;;;;;;1.30;0.50;;;9.00;99.90;;;;;;4976865;28;20023;-96
2022/11/19 10:10:33;;;;;;;3.20;0.80;;;9.00;99.90;;;;;;4966112;29;20066;-95
2022/11/19 10:13:37;;;;;;;2.92;0.60;;;9.00;99.90;;;;;;4994358;28;20081;-93
2022/11/19 10:16:34;;;;;;;3.67;0.70;;;9.00;99.90;;;;;;4987950;28;20043;-95
2022/11/19 10:19:21;;;;;;;2.40;0.93;;;8.90;99.90;;;;;;5002215;28;20041;-95
2022/11/19 10:22:12;;;;;;;5.72;0.75;;;8.90;99.90;;;;;;4961746;28;20016;-94
2022/11/19 10:24:50;;;;;;;3.45;0.73;;;8.90;99.90;;;;;;4974943;28;20026;-92
2022/11/19 10:27:29;;;;;;;1.88;0.50;;;8.80;99.90;;;;;;4977933;28;20041;-93
2022/11/19 10:29:58;;;;;;;1.35;0.90;;;8.80;99.90;;;;;;4979902;28;20011;-88
2022/11/19 10:32:41;;;;;;;1.77;0.60;;;8.80;99.90;;;;;;4991797;28;20039;-89
2022/11/19 10:35:15;;;;;;;3.30;1.23;;;8.70;99.90;;;;;;4959774;28;20325;-94
2022/11/19 10:37:57;;;;;;;1.40;0.73;;;8.70;99.90;;;;;;4978760;28;20019;-96
2022/11/19 10:40:27;;;;;;;2.47;0.93;;;8.70;99.90;;;;;;4969338;28;20077;-95
2022/11/19 10:43:14;;;;;;;1.43;0.60;;;8.70;99.90;;;;;;4964947;29;20035;-94
2022/11/19 10:45:39;;;;;;;7.20;0.70;;;8.70;99.90;;;;;;4973633;28;20030;-95
2022/11/19 10:48:23;;;;;;;1.85;0.70;;;8.70;99.90;;;;;;4990508;28;20035;-93
2022/11/19 10:50:49;;;;;;;1.98;0.70;;;8.80;99.90;;;;;;4993604;28;20050;-94
2022/11/19 10:53:35;;;;;;;4.07;0.80;;;8.80;99.90;;;;;;4992078;28;20023;-93
2022/11/19 10:56:10;;;;;;;2.42;0.90;;;8.80;99.90;;;;;;4979290;28;20027;-94
2022/11/19 10:58:51;;;;;;;1.13;0.55;;;8.80;99.90;;;;;;4979697;28;20039;-93
2022/11/19 11:01:38;;;;;;;4.60;0.80;;;8.80;99.90;;;;;;4979257;28;20039;-93
2022/11/19 11:04:20;;;;;;;3.42;1.00;;;8.80;99.90;;;;;;4988741;28;20007;-94
2022/11/19 11:07:04;;;;;;;4.85;1.20;;;8.80;99.90;;;;;;4992384;28;20070;-95
2022/11/19 11:09:33;;;;;;;1.70;0.82;;;8.80;99.90;;;;;;4993829;28;20022;-95
2022/11/19 11:15:16;;;;;;;1.88;0.90;;;8.80;99.90;;;;;;4983781;28;20038;-96
2022/11/19 11:17:45;;;;;;;6.97;1.25;;;8.80;99.90;;;;;;4986452;28;20098;-94
2022/11/19 11:20:17;;;;;;;1.95;1.13;;;8.80;99.90;;;;;;4981891;28;20026;-93
2022/11/19 11:22:45;;;;;;;5.10;1.80;;;8.80;99.90;;;;;;4982798;28;20079;-95
2022/11/19 11:25:23;;;;;;;4.30;1.20;;;8.90;99.90;;;;;;4978467;28;20075;-93
2022/11/19 11:28:07;;;;;;;2.53;1.08;;;8.90;99.90;;;;;;4986587;28;20039;-92
2022/11/19 11:30:33;;;;;;;4.68;1.38;;;8.90;99.90;;;;;;4980745;28;20035;-93
2022/11/19 11:33:26;;;;;;;2.15;0.80;;;8.90;99.90;;;;;;4977578;28;20034;-95
2022/11/19 11:35:53;;;;;;;4.43;1.02;;;8.80;99.90;;;;;;4977321;28;20401;-93
2022/11/19 11:38:21;;;;;;;3.00;1.10;;;8.80;99.90;;;;;;4976400;28;20027;-94
2022/11/19 11:41:04;;;;;;;2.22;0.88;;;8.80;99.90;;;;;;4975418;28;20058;-94
2022/11/19 11:43:32;;;;;;;2.63;1.35;;;8.70;99.90;;;;;;4948109;29;20081;-94
2022/11/19 11:46:01;;;;;;;3.67;0.75;;;8.70;99.90;;;;;;4954206;29;20031;-92
2022/11/19 11:48:40;;;;;;;3.50;0.80;;;8.80;99.90;;;;;;4973824;28;20027;-95
2022/11/19 11:51:35;;;;;;;1.98;0.77;;;8.70;99.90;;;;;;4961227;29;20062;-93
2022/11/19 11:54:19;;;;;;;2.05;0.80;;;8.70;99.90;;;;;;4972267;29;20027;-91
2022/11/19 11:56:45;;;;;;;2.47;1.30;;;8.70;99.90;;;;;;4954937;29;20043;-93
2022/11/19 11:59:25;;;;;;;1.85;0.93;;;8.70;99.90;;;;;;4955781;29;20115;-94
2022/11/19 12:02:00;;;;;;;2.22;0.63;;;8.70;99.90;;;;;;4956272;29;20023;-95
2022/11/19 12:04:25;;;;;;;0.73;0.45;;;8.70;99.90;;;;;;4967289;29;20076;-94
2022/11/19 12:07:00;;;;;;;2.63;1.02;;;8.70;99.90;;;;;;4970704;29;20059;-93
2022/11/19 12:09:50;;;;;;;1.90;1.15;;;8.70;99.90;;;;;;4944304;29;20251;-95
2022/11/19 12:12:29;;;;;;;2.47;1.00;;;8.70;99.90;;;;;;4974484;29;20034;-95
2022/11/19 12:15:24;;;;;;;2.80;0.90;;;8.80;99.90;;;;;;4969440;28;20062;-94
2022/11/19 12:18:08;;;;;;;2.58;1.08;;;8.80;99.90;;;;;;4953163;29;20036;-96
2022/11/19 12:20:44;;;;;;;4.93;1.40;;;8.90;99.90;;;;;;4959531;29;20038;-95
2022/11/19 12:23:30;;;;;;;1.25;0.80;;;9.00;99.90;;;;;;4962866;29;20035;-95
2022/11/19 12:26:02;;;;;;;3.72;0.90;;;9.00;99.90;;;;;;4947860;29;20050;-95
2022/11/19 12:29:03;;;;;;;4.22;1.30;;;9.10;99.90;;;;;;4966202;29;20074;-96
2022/11/19 12:31:41;;;;;;;;;;;9.10;99.90;;;;;;4964664;29;20030;-94
2022/11/19 12:34:41;;;;;;;3.08;0.90;;;9.30;99.90;;;;;;4967194;29;19926;-93
2022/11/19 12:37:12;;;;;;;2.83;0.82;;;9.60;99.90;;;;;;4960211;29;20107;-91
2022/11/19 12:39:50;;;;;;;2.75;1.20;;;9.80;99.90;;;;;;4962247;28;20031;-93
2022/11/19 12:42:31;;;;;;;2.85;0.80;;;10.00;99.90;;;;;;4964789;28;20105;-93
2022/11/19 12:45:14;;;;;;;0.40;0.40;;;10.10;99.90;;;;;;4967342;28;20054;-93
2022/11/19 12:47:52;;;;;;;5.00;1.75;;;10.20;99.90;;;;;;4987044;28;20026;-95
2022/11/19 12:50:27;;;;;;;4.63;1.98;;;10.30;99.90;;;;;;4985124;28;20058;-94
2022/11/19 12:53:04;;;;;;;2.13;1.13;;;10.30;99.90;;;;;;4986692;28;20026;-94
2022/11/19 12:56:08;;;;;;;2.95;0.98;;;10.30;99.90;;;;;;4981524;28;20118;-94
2022/11/19 12:58:34;;;;;;;0.95;0.73;;;10.20;99.90;;;;;;4962793;28;20038;-93
2022/11/19 13:01:04;;;;;;;1.52;0.65;;;10.20;99.90;;;;;;4963588;28;20037;-94
2022/11/19 13:03:47;;;;;;;1.10;0.75;;;10.20;99.90;;;;;;4976449;28;20026;-94
2022/11/19 13:06:20;;;;;;;1.63;0.80;;;10.10;99.90;;;;;;4965588;28;20078;-96
2022/11/19 13:08:53;;;;;;;5.40;1.23;;;10.10;99.90;;;;;;4942144;29;20027;-95
2022/11/19 13:11:45;;;;;;;3.80;2.20;;;10.00;99.90;;;;;;4961624;28;20030;-95
2022/11/19 13:14:32;;;;;;;2.38;0.93;;;10.00;99.90;;;;;;4958373;28;20085;-92
2022/11/19 13:16:58;;;;;;;2.50;1.20;;;10.10;99.90;;;;;;4960611;28;20097;-93
2022/11/19 13:19:31;;;;;;;5.63;3.53;;;10.10;99.90;;;;;;4970017;28;20023;-93
2022/11/19 13:22:23;;;;;;;2.97;2.10;;;10.10;99.90;;;;;;4966106;28;20093;-94
2022/11/19 13:24:54;;;;;;;1.83;1.00;;;10.10;99.90;;;;;;4955081;28;20038;-92
2022/11/19 13:27:23;;;;;;;3.20;1.77;;;10.10;99.90;;;;;;4974350;28;20019;-92
2022/11/19 13:30:13;;;;;;;8.95;2.60;;;10.10;99.90;;;;;;4967316;28;20078;-92
2022/11/19 13:33:04;;;;;;;14.32;5.72;;;10.10;99.90;;;;;;4964886;28;20039;-94
2022/11/19 13:36:08;;;;;;;7.57;3.30;;;10.10;99.90;;;;;;4965026;28;20027;-92
2022/11/19 13:38:57;;;;;;;6.38;2.63;;;10.10;99.90;;;;;;4963929;28;20023;-93
2022/11/19 13:44:47;;;;;;;2.30;1.00;;;10.10;99.90;;;;;;4957752;28;20147;-94
2022/11/19 13:47:55;;;;;;;1.80;1.30;;;10.10;99.90;;;;;;4947997;28;20046;-93
2022/11/19 13:50:27;;;;;;;1.00;0.80;;;10.10;99.90;;;;;;4978299;28;20011;-93
2022/11/19 13:53:22;;;;;;;1.23;0.98;;;10.10;99.90;;;;;;4963976;28;20038;-93
2022/11/19 13:55:55;;;;;;;1.35;0.90;;;10.10;99.90;;;;;;4948080;28;20039;-92
2022/11/19 13:58:31;;;;;;;2.33;0.80;;;10.10;99.90;;;;;;4965329;28;20082;-93